Saltillo, México

6:53 PM CDT en Septiembre 19, 2014 (GMT -0500)
Meteo Sur | Change Station
CLOSE
Current Station
Estación meteorológica personal
Location: Saltillo, COAHUILA DE ZARAGOZA
Altura: 5545 ft
Estaciones meteorológicas cercanas

Alt 5545 ft 25.39 °N, 101.02 °W | Updated 4 minutes ago

Mostly Cloudy
Muy nublado
68.5 ° F
Sensación térmica 68.5 ° F
N
0.0
Viento Variable Viento desde SE

Hoy
Alta -- | Baja -- ° F
--% Posibilidad de precipitaciones
Ayer
Alta -- | Baja -- ° F
Precip. -- pul
7:31 AM 7:43 PM
Creciente menguante, 16% visible
Presión 30.03 pul
Visibilidad 8.0 Millas
Nubes Nubes dispersas 4000 ft
Muy nublado 20000 ft
Punto de rocío 64 ° F
Humedad 84%
Precipitaciones 0.57 pul
Espesor de la nieve No disponible.
UV 0 de una escala de 12
Polen No disponible.
Calidad del aire No disponible.
Flu Activity No disponible.
METAR MMIO 192340Z 03012KT 8SM SCT040 BKN200 25/19 A3003 RMK 8/508 HZY AC

More Conditions Fewer Conditions

Presión 30.03 pul
Visibilidad 8.0 Millas
Nubes Nubes dispersas 4000 ft
Muy nublado 20000 ft
Punto de rocío 64 ° F
Humedad 84%
Precipitaciones 0.57 pul
Espesor de la nieve No disponible.
UV 0 de una escala de 12
Polen No disponible.
Calidad del aire No disponible.
Flu Activity No disponible.
METAR MMIO 192340Z 03012KT 8SM SCT040 BKN200 25/19 A3003 RMK 8/508 HZY AC

More Conditions Fewer Conditions

10-Day Weather Forecast

Almanac

Astronomía

Sep. 19, 2014 Salida Puesta
Hora real 7:31 AM CDT 7:43 PM CDT
Crepúsculo civil 7:08 AM CDT 8:06 PM CDT
Crepúsculo náutico 6:41 AM CDT 8:33 PM CDT
Crepúsculo astronómico 6:15 AM CDT 9:00 PM CDT
Luna 3:38 AM CDT 4:55 PM CDT
Horas de luz 12h 57m
Horas de luz
12h 12m
Tomorrow will be 1m 28s shorter.
Creciente menguante, 16% of the Moon is Illuminated
Hoy
Creciente menguante
Sep 24
Nueva
Oct 1
Cuarto creciente
Oct 8
Luna llena
Oct 15
Cuarto menguante

Extremos de hoy

Máximos del país Bajas del país

Community

WunderPhotos

Upload Photos

1,754,730 ¡fotos cargadas!

Nearby

Calidad del aire

Not available.

Grosos de nieve

Not available.

Actividad de terremotos

Ciudad Distance Mag. Tiempo y dato
No hay informes recientes de la actividad sísmica.
Magnitud mínima muestra es 2,5.

Temperaturas de aguas costeras

Lugar Temperatura
Sin partes meteorológicos de las estaciones

Estaciones meteorológicas cercanas